Terminal Aerodrome Forecast
Issued by NWS

Home | Current Version | Previous Version | Text Only | Print | Product List | Glossary On
Versions: 1 2 3 4 5 6 7 8 9 10 11 12 13 14 15 16 17 18 19
000
FTUS46 KPDT 220941 AAA
TAFRDM
TAF AMD
KRDM 220941Z 2210/2306 18016G26KT P6SM OVC060
     FM221200 22020G30KT P6SM -RA OVC060
     FM221800 28014G24KT P6SM -RA OVC050
     FM230200 25012G22KT P6SM VCSH SCT100 BKN250=

USA.gov is the U.S. government's official web portal to all federal, state and local government web resources and services.